Time;durP1;ratioP1;P1;durP2;ratioP2;P2;SDS_P1;SDS_P2;PMS_P1;PMS_P2;Temp;Humidity;BMP_temperature;BMP_pressure;BME280_temperature;BME280_humidity;BME280_pressure;Samples;Min_cycle;Max_cycle;Signal;HPM_P1;HPM_P2
2022/07/21 00:01:03;;;;;;;;;6.00;6.00;;;;;22.09;67.94;101798.00;5095115;27;49755;-75
2022/07/21 00:03:29;;;;;;;;;4.25;3.75;;;;;22.15;67.62;101797.06;5093391;27;52416;-72
2022/07/21 00:05:54;;;;;;;;;6.00;6.00;;;;;21.91;67.82;101750.03;5093469;27;49873;-75
2022/07/21 00:08:20;;;;;;;;;8.00;5.75;;;;;22.09;67.64;101784.63;5094791;27;49568;-75
2022/07/21 00:10:45;;;;;;;;;4.25;4.25;;;;;22.07;67.74;101783.75;5094633;27;49925;-72
2022/07/21 00:13:10;;;;;;;;;3.25;3.25;;;;;21.97;67.81;101782.94;5094210;27;49638;-73
2022/07/21 00:15:36;;;;;;;;;6.25;6.25;;;;;22.06;67.95;101784.63;5094309;27;49745;-72
2022/07/21 00:18:02;;;;;;;;;3.50;3.50;;;;;22.08;67.95;101785.53;5094530;27;50111;-77
2022/07/21 00:20:30;;;;;;;;;5.75;4.50;;;;;22.04;67.97;101786.44;5094732;27;49784;-70
2022/07/21 00:22:56;;;;;;;;;6.50;6.25;;;;;22.03;68.12;101791.81;5094156;27;51732;-73
2022/07/21 00:25:21;;;;;;;;;3.75;3.75;;;;;21.76;68.28;101751.06;5094362;27;49767;-73
2022/07/21 00:27:47;;;;;;;;;3.75;3.75;;;;;21.97;68.46;101793.63;5094177;27;49632;-70
2022/07/21 00:30:14;;;;;;;;;4.25;4.25;;;;;21.92;68.43;101790.13;5094532;27;49779;-74
2022/07/21 00:32:39;;;;;;;;;3.25;3.25;;;;;21.75;68.64;101765.34;5094228;27;51348;-74
2022/07/21 00:35:07;;;;;;;;;5.25;4.25;;;;;21.84;68.90;101796.44;5094133;27;49610;-73
2022/07/21 00:37:33;;;;;;;;;3.25;3.25;;;;;21.80;68.86;101784.88;5094325;27;49688;-71
2022/07/21 00:39:58;;;;;;;;;4.50;4.25;;;;;21.74;69.08;101789.41;5094226;27;49640;-71
2022/07/21 00:42:27;;;;;;;;;5.50;4.75;;;;;21.68;69.18;101793.91;5093886;27;50490;-75
2022/07/21 00:44:53;;;;;;;;;4.00;4.00;;;;;21.63;69.58;101784.16;5094179;27;49912;-76
2022/07/21 00:47:20;;;;;;;;;3.50;3.50;;;;;21.27;69.82;101724.78;5094090;27;49856;-71
2022/07/21 00:49:45;;;;;;;;;2.00;2.00;;;;;21.47;70.26;101774.50;5094203;27;50016;-71
2022/07/21 00:52:10;;;;;;;;;3.75;3.75;;;;;21.23;70.15;101732.78;5093614;27;50151;-72
2022/07/21 00:54:36;;;;;;;;;3.25;3.25;;;;;21.42;70.56;101772.75;5092574;27;49745;-73
2022/07/21 00:57:02;;;;;;;;;5.00;4.25;;;;;21.16;70.52;101726.63;5091117;27;50702;-72
2022/07/21 00:59:29;;;;;;;;;3.25;3.25;;;;;21.10;70.65;101732.00;5092608;27;50642;-71
2022/07/21 01:01:55;;;;;;;;;6.25;4.25;;;;;21.41;70.68;101778.97;5089664;27;50142;-73
2022/07/21 01:04:20;;;;;;;;;4.50;2.25;;;;;21.12;70.74;101743.56;5092085;27;49864;-71
2022/07/21 01:06:47;;;;;;;;;4.25;4.25;;;;;21.20;71.17;101755.06;5092238;27;50266;-71
2022/07/21 01:09:12;;;;;;;;;3.75;3.75;;;;;21.28;71.08;101776.41;5092380;27;49847;-71
2022/07/21 01:11:39;;;;;;;;;3.50;3.50;;;;;21.07;71.11;101740.03;5092399;27;50506;-72
2022/07/21 01:14:04;;;;;;;;;3.00;2.00;;;;;21.26;71.43;101781.78;5093413;27;51170;-72
2022/07/21 01:16:31;;;;;;;;;3.25;3.00;;;;;21.05;71.57;101756.06;5092923;27;49749;-72
2022/07/21 01:18:56;;;;;;;;;6.00;6.00;;;;;21.21;71.78;101788.88;5096850;27;49788;-72
2022/07/21 01:21:35;;;;;;;;;3.75;3.75;;;;;21.15;72.21;101779.16;5097037;27;49648;-71
2022/07/21 01:24:02;;;;;;;;;3.25;3.25;;;;;21.14;72.42;101780.06;5097218;27;49713;-70
2022/07/21 01:26:28;;;;;;;;;4.75;4.00;;;;;21.12;72.12;101789.81;5097191;27;49626;-70
2022/07/21 01:28:54;;;;;;;;;5.50;5.00;;;;;20.76;72.75;101732.25;5097151;27;49633;-73
2022/07/21 01:31:20;;;;;;;;;5.50;3.25;;;;;20.94;72.71;101755.28;5097041;27;50802;-71
2022/07/21 01:33:46;;;;;;;;;4.50;4.50;;;;;21.05;72.75;101773.88;5096747;27;49509;-71
2022/07/21 01:36:11;;;;;;;;;5.25;4.25;;;;;20.84;73.32;101742.84;5095939;27;49530;-71
2022/07/21 01:41:30;;;;;;;;;4.00;4.00;;;;;20.84;73.52;101740.19;5094399;27;50265;-71
2022/07/21 01:44:04;;;;;;;;;5.75;5.75;;;;;20.91;73.80;101765.06;5094915;27;49805;-70
2022/07/21 01:46:33;;;;;;;;;7.50;5.75;;;;;20.77;73.89;101739.34;5095126;27;49799;-73
2022/07/21 01:48:58;;;;;;;;;6.25;6.25;;;;;20.89;73.76;101766.84;5095453;27;49684;-71
2022/07/21 01:51:24;;;;;;;;;6.00;5.00;;;;;20.70;73.86;101731.38;5094834;27;50075;-70
2022/07/21 01:53:50;;;;;;;;;8.00;8.00;;;;;20.63;74.06;101733.19;5094985;27;49900;-72
2022/07/21 01:56:19;;;;;;;;;8.25;7.50;;;;;20.87;74.47;101780.22;5095183;27;49852;-73
2022/07/21 01:58:45;;;;;;;;;8.75;5.25;;;;;20.66;74.63;101761.66;5092028;27;49944;-71
2022/07/21 02:01:10;;;;;;;;;4.00;4.00;;;;;20.58;74.65;101757.22;5095389;27;50647;-70
2022/07/21 02:03:35;;;;;;;;;6.25;5.75;;;;;20.82;74.55;101793.56;5096608;27;49744;-70
2022/07/21 02:06:05;;;;;;;;;6.50;6.50;;;;;20.81;74.63;101790.91;5096780;27;49689;-71
2022/07/21 02:08:32;;;;;;;;;6.50;4.50;;;;;20.78;74.52;101789.16;5096706;27;49944;-70
2022/07/21 02:10:58;;;;;;;;;8.00;7.00;;;;;20.60;75.02;101759.88;5094553;27;49799;-71
2022/07/21 02:13:24;;;;;;;;;6.50;5.00;;;;;20.66;75.02;101778.53;5096032;27;49671;-73
2022/07/21 02:15:49;;;;;;;;;4.75;4.75;;;;;20.57;75.15;101759.91;5096404;27;49759;-70
2022/07/21 02:18:14;;;;;;;;;5.50;5.50;;;;;20.65;75.05;101782.06;5096710;27;49787;-71
2022/07/21 02:20:40;;;;;;;;;7.25;4.50;;;;;20.66;75.16;101791.00;5096217;27;50786;-72
2022/07/21 02:23:05;;;;;;;;;6.00;6.00;;;;;20.69;75.32;101785.63;5096203;27;49769;-77
2022/07/21 02:25:30;;;;;;;;;5.50;4.25;;;;;20.16;74.72;101688.03;5096299;27;49640;-71
2022/07/21 02:27:56;;;;;;;;;7.75;7.00;;;;;20.71;75.00;101783.84;5095940;27;49655;-73
2022/07/21 02:30:21;;;;;;;;;7.25;7.00;;;;;20.63;74.96;101770.53;5094852;27;49935;-70
2022/07/21 02:32:47;;;;;;;;;5.00;3.75;;;;;20.68;75.27;101791.88;5095771;27;49622;-76
2022/07/21 02:35:13;;;;;;;;;4.75;4.50;;;;;20.54;75.11;101789.25;5096086;27;49739;-70
2022/07/21 02:37:39;;;;;;;;;7.00;5.50;;;;;20.52;75.55;101797.25;5096253;27;49843;-71
2022/07/21 02:40:05;;;;;;;;;5.75;5.00;;;;;20.60;75.39;101793.69;5095952;27;50990;-70
2022/07/21 02:42:30;;;;;;;;;7.00;6.50;;;;;20.42;75.22;101762.59;5095480;27;49719;-70
2022/07/21 02:44:56;;;;;;;;;6.75;5.50;;;;;20.67;75.22;101798.09;5095793;27;49718;-71
2022/07/21 02:47:21;;;;;;;;;7.00;7.00;;;;;20.48;74.93;101763.50;5096299;27;49753;-70
2022/07/21 02:49:47;;;;;;;;;7.50;6.75;;;;;20.73;75.17;101800.72;5095977;27;50636;-76
2022/07/21 02:52:14;;;;;;;;;7.00;7.00;;;;;20.76;74.87;101801.63;5094599;27;49699;-71
2022/07/21 02:54:39;;;;;;;;;7.25;7.25;;;;;20.78;74.60;101799.81;5095649;27;49928;-71
2022/07/21 02:57:05;;;;;;;;;8.00;8.00;;;;;20.81;74.50;101817.59;5095457;27;49738;-71
2022/07/21 02:59:30;;;;;;;;;6.00;5.00;;;;;20.63;74.37;101777.66;5095618;27;50085;-70
2022/07/21 03:01:55;;;;;;;;;8.50;8.00;;;;;20.80;73.99;101807.81;5095684;27;49675;-70
2022/07/21 03:04:21;;;;;;;;;6.75;6.25;;;;;20.66;73.69;101788.34;5095833;27;50182;-70
2022/07/21 03:06:46;;;;;;;;;8.00;7.00;;;;;20.67;73.94;101795.44;5095698;27;49897;-72
2022/07/21 03:09:11;;;;;;;;;9.75;8.50;;;;;20.36;73.77;101752.81;5095212;27;50525;-72
2022/07/21 03:11:37;;;;;;;;;6.75;6.50;;;;;20.70;73.49;101801.63;5095105;27;49790;-71
2022/07/21 03:14:02;;;;;;;;;8.00;7.50;;;;;20.79;73.27;101814.06;5095520;27;50062;-71
2022/07/21 03:16:28;;;;;;;;;7.00;7.00;;;;;20.69;73.08;101806.97;5095658;27;49643;-71
2022/07/21 03:18:53;;;;;;;;;11.25;9.50;;;;;20.63;73.00;101813.22;5094151;27;49832;-70
2022/07/21 03:21:18;;;;;;;;;13.75;11.50;;;;;20.44;73.60;101795.50;5106605;27;51092;-70
2022/07/21 03:23:47;;;;;;;;;13.75;12.00;;;;;20.36;74.05;101794.59;5115631;27;49792;-71
2022/07/21 03:26:14;;;;;;;;;12.50;9.75;;;;;20.28;74.03;101792.00;5115878;27;49672;-70
2022/07/21 03:28:44;;;;;;;;;12.00;12.00;;;;;20.32;74.03;101798.19;5115543;27;50951;-76
2022/07/21 03:31:09;;;;;;;;;12.25;11.75;;;;;20.14;74.65;101785.78;5113944;27;49598;-72
2022/07/21 03:33:35;;;;;;;;;12.75;12.25;;;;;20.21;74.78;101808.88;5115616;27;49963;-71
2022/07/21 03:36:01;;;;;;;;;12.50;12.50;;;;;20.20;74.60;101812.44;5115768;27;49831;-71
2022/07/21 03:38:27;;;;;;;;;12.50;11.75;;;;;20.36;74.73;101830.16;5115359;27;50765;-72
2022/07/21 03:40:52;;;;;;;;;11.00;11.00;;;;;20.21;74.62;101806.22;5115095;27;49793;-75
2022/07/21 03:43:18;;;;;;;;;11.00;11.00;;;;;20.33;74.60;101822.19;5115375;27;49662;-72
2022/07/21 03:45:44;;;;;;;;;14.50;14.50;;;;;20.21;74.42;101796.44;5115836;27;49739;-72
2022/07/21 03:48:10;;;;;;;;;16.75;14.50;;;;;20.30;74.44;101819.53;5115507;27;50760;-72
2022/07/21 03:50:39;;;;;;;;;14.25;14.25;;;;;20.41;74.47;101835.50;5114339;27;49833;-70
2022/07/21 03:53:05;;;;;;;;;12.25;11.50;;;;;20.29;74.91;101825.75;5074093;27;49681;-72
2022/07/21 03:55:31;;;;;;;;;13.00;12.50;;;;;20.31;74.76;101829.31;5074638;27;50038;-71
2022/07/21 03:58:00;;;;;;;;;14.75;12.75;;;;;20.40;74.30;101831.06;5074142;27;50940;-71
2022/07/21 04:00:37;;;;;;;;;14.75;14.25;;;;;20.48;73.99;101838.19;5074552;27;49656;-73
2022/07/21 04:03:03;;;;;;;;;13.25;12.00;;;;;20.49;73.98;101839.97;5074417;27;49942;-76
2022/07/21 04:05:29;;;;;;;;;15.25;14.50;;;;;20.47;74.25;101840.88;5074340;27;49624;-71
2022/07/21 04:07:55;;;;;;;;;18.25;16.25;;;;;20.45;74.07;101840.84;5073989;28;49885;-70
2022/07/21 04:10:26;;;;;;;;;13.75;13.75;;;;;20.36;74.66;101848.81;5074100;27;49848;-71
2022/07/21 04:12:52;;;;;;;;;19.75;15.50;;;;;20.33;74.58;101842.63;5073838;27;49717;-70
2022/07/21 04:15:18;;;;;;;;;16.50;16.50;;;;;20.38;74.56;101846.19;5104077;27;49838;-70
2022/07/21 04:17:45;;;;;;;;;14.75;14.75;;;;;20.27;74.52;101831.09;5114923;27;49812;-71
2022/07/21 04:20:13;;;;;;;;;17.75;17.00;;;;;20.02;74.58;101794.69;5109975;27;49820;-70
2022/07/21 04:22:40;;;;;;;;;16.75;16.75;;;;;20.17;74.17;101812.44;5115021;27;49786;-70
2022/07/21 04:25:06;;;;;;;;;15.50;15.25;;;;;20.47;74.20;101856.88;5113742;27;49927;-70
2022/07/21 04:27:33;;;;;;;;;17.00;17.00;;;;;20.37;74.43;101847.97;5114459;27;50322;-70
2022/07/21 04:29:58;;;;;;;;;17.75;16.50;;;;;20.48;74.04;101859.53;5114871;27;49662;-70
2022/07/21 04:32:24;;;;;;;;;20.75;19.75;;;;;20.48;74.21;101864.84;5114738;27;49765;-70
2022/07/21 04:34:49;;;;;;;;;17.50;17.50;;;;;20.53;73.73;101863.03;5109465;27;49872;-72
2022/07/21 04:37:15;;;;;;;;;23.50;21.25;;;;;20.37;73.67;101839.97;5114593;27;50372;-72
2022/07/21 04:39:40;;;;;;;;;22.00;18.50;;;;;20.38;73.75;101840.84;5114620;27;49565;-71
2022/07/21 04:42:07;;;;;;;;;22.50;22.00;;;;;20.55;73.78;101866.59;5114518;27;49807;-70
2022/07/21 04:44:32;;;;;;;;;22.25;20.75;;;;;20.51;73.73;101850.63;5114815;27;49647;-74
2022/07/21 04:46:58;;;;;;;;;19.75;19.00;;;;;20.51;73.82;101867.50;5102857;27;50738;-70
2022/07/21 04:49:23;;;;;;;;;23.50;18.00;;;;;20.50;73.91;101864.84;5093864;27;49830;-71
2022/07/21 04:51:48;;;;;;;;;17.00;17.00;;;;;20.30;73.82;101824.88;5093862;27;49636;-70
2022/07/21 04:54:14;;;;;;;;;21.75;18.50;;;;;20.42;73.60;101840.81;5097854;27;49855;-75
2022/07/21 04:56:41;;;;;;;;;21.00;18.25;;;;;20.33;73.66;101826.63;5095683;27;49950;-71
2022/07/21 04:59:07;;;;;;;;;20.50;19.00;;;;;20.48;73.92;101847.97;5097709;27;49743;-71
2022/07/21 05:01:32;;;;;;;;;23.75;22.75;;;;;20.60;73.56;101865.72;5107448;27;49793;-71
2022/07/21 05:03:57;;;;;;;;;23.75;22.25;;;;;20.57;73.88;101872.84;5118205;27;49555;-71
2022/07/21 05:06:22;;;;;;;;;20.00;18.25;;;;;20.25;73.76;101821.31;5100993;27;54385;-71
2022/07/21 05:08:48;;;;;;;;;20.25;20.25;;;;;20.65;73.64;101874.56;5097582;27;49903;-70
2022/07/21 05:11:13;;;;;;;;;22.25;21.25;;;;;20.57;73.44;101847.94;5097082;27;49887;-71
2022/07/21 05:13:39;;;;;;;;;20.25;20.25;;;;;20.71;73.55;101871.91;5097499;27;49809;-71
2022/07/21 05:16:04;;;;;;;;;25.00;22.25;;;;;20.58;73.45;101860.38;5110785;27;50679;-71
2022/07/21 05:18:30;;;;;;;;;26.75;23.00;;;;;20.66;73.37;101865.69;5117720;27;49734;-71
2022/07/21 05:20:55;;;;;;;;;24.00;22.00;;;;;20.76;73.16;101872.78;5117982;27;49978;-72
2022/07/21 05:23:21;;;;;;;;;19.50;18.75;;;;;20.69;73.04;101853.22;5117891;27;49920;-71
2022/07/21 05:25:46;;;;;;;;;22.00;21.75;;;;;20.88;72.44;101883.41;5111362;27;49787;-71
2022/07/21 05:28:11;;;;;;;;;18.50;14.75;;;;;20.92;72.51;101870.91;5097871;27;49822;-71
2022/07/21 05:30:37;;;;;;;;;22.25;21.25;;;;;20.79;72.42;101844.28;5096549;27;49833;-74
2022/07/21 05:33:02;;;;;;;;;17.75;16.00;;;;;20.74;72.51;101832.72;5097276;27;49921;-75
2022/07/21 05:35:28;;;;;;;;;19.75;18.25;;;;;21.11;72.37;101886.84;5096820;27;50922;-71
2022/07/21 05:37:53;;;;;;;;;24.25;22.25;;;;;20.98;71.60;101844.22;5097116;27;49813;-72
2022/07/21 05:40:18;;;;;;;;;22.50;20.75;;;;;21.14;71.49;101870.84;5097886;27;49817;-72
2022/07/21 05:42:44;;;;;;;;;15.00;14.00;;;;;21.07;71.34;101849.50;5109961;27;49816;-73
2022/07/21 05:45:11;;;;;;;;;24.00;24.00;;;;;21.33;71.01;101890.34;5115700;27;50439;-72
2022/07/21 05:47:37;;;;;;;;;20.00;20.00;;;;;21.29;70.91;101888.56;5117314;27;49599;-72
2022/07/21 05:50:02;;;;;;;;;20.25;20.00;;;;;21.21;71.25;101881.47;5117477;27;49725;-72
2022/07/21 05:52:28;;;;;;;;;21.25;21.25;;;;;21.34;71.38;101901.91;5104167;27;49703;-71
2022/07/21 05:54:53;;;;;;;;;22.25;21.75;;;;;21.44;70.74;101898.28;5096750;27;50808;-70
2022/07/21 05:57:18;;;;;;;;;23.50;21.75;;;;;21.38;70.33;101883.19;5098692;27;49819;-72
2022/07/21 05:59:44;;;;;;;;;24.25;24.00;;;;;21.57;70.43;101897.31;5115426;27;50103;-71
2022/07/21 06:02:10;;;;;;;;;20.00;20.00;;;;;21.44;70.27;101890.28;5116740;27;49738;-72
2022/07/21 06:04:35;;;;;;;;;20.00;19.25;;;;;21.54;70.05;101886.66;5105518;27;50995;-70
2022/07/21 06:07:00;;;;;;;;;23.75;21.00;;;;;21.55;69.84;101867.06;5105933;27;49640;-70
2022/07/21 06:09:26;;;;;;;;;21.50;20.25;;;;;21.74;69.18;101896.31;5114161;27;49861;-70
2022/07/21 06:11:52;;;;;;;;;25.00;23.00;;;;;21.62;69.53;101881.25;5086880;27;50790;-70
2022/07/21 06:14:17;;;;;;;;;22.25;19.75;;;;;21.88;69.28;101907.78;5085864;27;49909;-73
2022/07/21 06:16:42;;;;;;;;;22.25;21.25;;;;;22.00;68.34;101895.22;5086344;27;49933;-70
2022/07/21 06:19:08;;;;;;;;;24.75;22.50;;;;;22.21;67.91;101891.50;5087627;27;49854;-70
2022/07/21 06:21:33;;;;;;;;;19.75;18.75;;;;;22.24;67.69;101894.13;5087370;27;50114;-70
2022/07/21 06:23:59;;;;;;;;;23.75;21.50;;;;;22.13;67.76;101879.09;5086844;27;51371;-77
2022/07/21 06:26:25;;;;;;;;;24.75;20.50;;;;;21.93;67.92;101841.81;5085966;27;49731;-81
2022/07/21 06:28:50;;;;;;;;;27.25;24.00;;;;;22.11;67.45;101873.75;5086518;27;49778;-73
2022/07/21 06:31:16;;;;;;;;;20.25;18.50;;;;;22.33;67.32;101902.97;5088202;27;49981;-69
2022/07/21 06:33:41;;;;;;;;;22.00;20.00;;;;;22.35;67.36;101909.19;5086619;27;50713;-67
2022/07/21 06:36:07;;;;;;;;;23.00;21.00;;;;;22.17;67.23;101880.81;5087695;27;49709;-68
2022/07/21 06:38:33;;;;;;;;;20.75;20.75;;;;;22.33;67.29;101905.66;5091229;27;50313;-67
2022/07/21 06:40:58;;;;;;;;;25.00;21.00;;;;;22.35;66.99;101914.53;5096197;27;49496;-77
2022/07/21 06:43:23;;;;;;;;;21.00;20.50;;;;;22.20;67.13;101899.53;5097559;27;49817;-67
2022/07/21 06:45:50;;;;;;;;;20.00;17.75;;;;;22.28;67.25;101911.03;5108091;27;49593;-67
2022/07/21 06:48:15;;;;;;;;;21.75;20.50;;;;;22.42;67.22;101913.59;5107311;27;49514;-69
2022/07/21 06:50:41;;;;;;;;;20.75;19.75;;;;;22.53;66.68;101911.69;5102265;27;49802;-67
2022/07/21 06:53:06;;;;;;;;;25.50;20.00;;;;;22.67;66.21;101915.09;5102106;27;49822;-69
2022/07/21 06:55:35;;;;;;;;;19.00;18.00;;;;;22.77;65.83;101916.75;5094330;27;49742;-77
2022/07/21 06:58:17;;;;;;;;;21.00;21.00;;;;;22.95;65.96;101918.38;5095271;27;49810;-76
2022/07/21 07:00:44;;;;;;;;;20.75;20.75;;;;;23.06;65.07;101916.44;5110830;27;49865;-69
2022/07/21 07:03:09;;;;;;;;;19.25;17.50;;;;;23.08;64.58;101903.06;5112587;27;50540;-68
2022/07/21 07:05:35;;;;;;;;;20.25;17.75;;;;;22.97;64.13;101870.13;5115613;27;49816;-72
2022/07/21 07:08:02;;;;;;;;;24.75;23.25;;;;;23.32;64.28;101925.94;5106358;27;49863;-69
2022/07/21 07:10:28;;;;;;;;;19.00;19.00;;;;;23.33;63.62;101919.66;5094924;27;49525;-68
2022/07/21 07:12:54;;;;;;;;;23.25;21.25;;;;;23.45;63.53;101929.31;5093537;27;50576;-69
2022/07/21 07:15:19;;;;;;;;;30.00;24.50;;;;;23.39;63.57;101925.84;5093664;27;49591;-71
2022/07/21 07:17:45;;;;;;;;;18.75;18.75;;;;;23.41;63.40;101934.75;5095035;27;49707;-72
2022/07/21 07:20:10;;;;;;;;;18.25;18.25;;;;;23.25;63.37;101889.41;5095377;27;49821;-70
2022/07/21 07:22:36;;;;;;;;;23.75;22.00;;;;;23.63;62.94;101939.81;5108429;27;50177;-68
2022/07/21 07:25:01;;;;;;;;;23.25;21.25;;;;;23.51;62.49;101922.09;5115440;27;49688;-70
2022/07/21 07:27:27;;;;;;;;;22.25;21.00;;;;;23.64;62.45;101933.53;5101586;27;49818;-69
2022/07/21 07:29:52;;;;;;;;;24.25;21.50;;;;;23.49;62.82;101909.63;5112182;27;50114;-69
2022/07/21 07:32:17;;;;;;;;;24.25;22.75;;;;;23.78;62.50;101928.00;5106524;27;51088;-69
2022/07/21 07:34:43;;;;;;;;;20.25;20.00;;;;;23.75;62.01;101906.59;5094501;27;49703;-68
2022/07/21 07:37:08;;;;;;;;;23.25;23.00;;;;;23.90;61.84;101926.00;5093450;27;49946;-68
2022/07/21 07:39:34;;;;;;;;;22.00;20.00;;;;;23.79;61.31;101892.22;5094749;27;49889;-70
2022/07/21 07:41:59;;;;;;;;;24.75;23.75;;;;;24.16;61.47;101939.00;5111453;27;50543;-69
2022/07/21 07:44:24;;;;;;;;;24.25;23.00;;;;;24.23;60.74;101931.72;5093669;27;49903;-68
2022/07/21 07:46:50;;;;;;;;;23.50;22.00;;;;;24.09;60.61;101909.59;5092887;27;49750;-69
2022/07/21 07:49:15;;;;;;;;;26.00;23.50;;;;;24.01;60.55;101901.69;5077638;27;49801;-71
2022/07/21 07:51:41;;;;;;;;;27.75;25.50;;;;;24.31;60.15;101929.81;5111509;27;50067;-69
2022/07/21 07:54:06;;;;;;;;;23.75;23.50;;;;;24.49;59.81;101940.22;5106826;27;49755;-67
2022/07/21 07:56:32;;;;;;;;;27.50;26.00;;;;;24.37;59.41;101920.78;5114745;27;49994;-66
2022/07/21 07:58:58;;;;;;;;;26.50;26.50;;;;;24.45;59.51;101914.34;5114441;27;49988;-67
2022/07/21 08:01:23;;;;;;;;;22.75;22.75;;;;;24.56;59.18;101924.91;5099906;27;49940;-68
2022/07/21 08:03:49;;;;;;;;;20.50;19.25;;;;;24.75;58.72;101944.22;5094589;27;49766;-69
2022/07/21 08:06:14;;;;;;;;;26.50;24.50;;;;;24.49;58.22;101913.38;5095531;27;49577;-67
2022/07/21 08:08:39;;;;;;;;;24.25;22.00;;;;;24.58;58.68;101933.78;5113529;27;49993;-70
2022/07/21 08:11:05;;;;;;;;;31.25;28.75;;;;;24.50;58.71;101914.25;5114472;27;50882;-70
2022/07/21 08:13:31;;;;;;;;;35.00;31.25;;;;;24.48;58.81;101925.03;5102224;27;49750;-69
2022/07/21 08:15:56;;;;;;;;;25.50;24.00;;;;;24.60;58.22;101953.44;5094297;27;50295;-69
2022/07/21 08:18:21;;;;;;;;;31.00;28.00;;;;;24.32;58.51;101918.19;5096381;27;49645;-70
2022/07/21 08:20:47;;;;;;;;;24.25;24.25;;;;;24.58;58.44;101943.66;5110013;27;50807;-76
2022/07/21 08:23:14;;;;;;;;;36.75;30.00;;;;;24.52;58.33;101934.81;5094331;27;49669;-79
2022/07/21 08:25:40;;;;;;;;;29.00;26.00;;;;;24.71;58.07;101958.63;5107842;27;49986;-71
2022/07/21 08:28:05;;;;;;;;;27.75;26.50;;;;;24.65;57.99;101940.84;5099112;27;49830;-76
2022/07/21 08:30:30;;;;;;;;;25.75;25.75;;;;;24.81;57.59;101953.06;5093474;27;50616;-74
2022/07/21 08:32:57;;;;;;;;;33.00;30.50;;;;;24.92;57.91;101960.91;5092447;27;49609;-71
2022/07/21 08:35:23;;;;;;;;;44.00;35.00;;;;;24.86;57.73;101927.91;5094466;27;49820;-69
2022/07/21 08:37:58;;;;;;;;;34.00;31.75;;;;;25.22;56.99;101958.53;5114836;27;49903;-70
2022/07/21 08:40:26;;;;;;;;;29.00;28.00;;;;;25.26;56.21;101961.13;5114527;27;49606;-70
2022/07/21 08:42:53;;;;;;;;;26.75;26.25;;;;;24.94;56.02;101934.00;5094267;27;49966;-71
2022/07/21 08:45:19;;;;;;;;;26.50;25.00;;;;;25.09;56.85;101956.13;5110152;27;50075;-69
2022/07/21 08:47:45;;;;;;;;;30.00;28.75;;;;;25.27;56.44;101957.50;5108144;27;49964;-68
2022/07/21 08:50:11;;;;;;;;;30.25;28.75;;;;;25.37;56.34;101936.69;5095370;27;50478;-68
2022/07/21 08:52:37;;;;;;;;;29.75;28.25;;;;;25.51;55.27;101949.84;5108874;27;49812;-68
2022/07/21 08:55:03;;;;;;;;;46.00;32.50;;;;;25.62;55.14;101964.81;5104904;27;49811;-73
2022/07/21 08:57:28;;;;;;;;;28.50;27.50;;;;;25.77;54.93;101962.72;5094016;27;49927;-68
2022/07/21 08:59:53;;;;;;;;;34.00;28.75;;;;;25.65;54.84;101935.16;5093130;27;51648;-71
2022/07/21 09:02:33;;;;;;;;;29.50;25.25;;;;;25.92;54.68;101954.28;5108065;27;49834;-70
2022/07/21 09:05:00;;;;;;;;;25.25;24.25;;;;;25.85;53.80;101955.34;5114832;27;49837;-78
2022/07/21 09:07:25;;;;;;;;;28.25;23.25;;;;;25.73;54.57;101937.69;5114225;27;49759;-74
2022/07/21 09:10:00;;;;;;;;;25.00;23.25;;;;;25.89;54.41;101959.75;5114478;27;50522;-75
2022/07/21 09:12:27;;;;;;;;;23.00;22.75;;;;;25.66;54.55;101961.13;5101305;27;49909;-73
2022/07/21 09:15:11;;;;;;;;;28.50;27.00;;;;;25.54;54.60;101937.22;5114267;27;49872;-76
2022/07/21 09:17:36;;;;;;;;;28.50;26.00;;;;;25.56;55.11;101961.38;5114396;27;49741;-67
2022/07/21 09:20:02;;;;;;;;;22.50;19.00;;;;;25.57;54.84;101952.38;5114124;27;50367;-68
2022/07/21 09:22:29;;;;;;;;;27.75;24.75;;;;;25.84;55.04;101965.22;5097368;27;49837;-71
2022/07/21 09:24:54;;;;;;;;;24.75;24.50;;;;;25.98;54.30;101946.06;5093699;27;49943;-66
2022/07/21 09:27:24;;;;;;;;;21.75;21.25;;;;;26.12;54.06;101960.06;5093734;27;49712;-72
2022/07/21 09:29:53;;;;;;;;;28.00;25.75;;;;;26.28;53.58;101963.25;5108979;27;51842;-70
2022/07/21 09:32:22;;;;;;;;;22.50;20.00;;;;;26.27;53.11;101966.00;5093631;27;49825;-69
2022/07/21 09:34:49;;;;;;;;;21.25;20.50;;;;;26.37;53.04;101972.91;5093625;27;49690;-69
2022/07/21 09:37:16;;;;;;;;;21.50;20.50;;;;;26.33;52.96;101949.66;5093441;27;50044;-70
2022/07/21 09:39:47;;;;;;;;;25.50;22.25;;;;;26.52;52.37;101972.53;5096289;27;51524;-73
2022/07/21 09:42:23;;;;;;;;;25.50;20.25;;;;;26.59;52.81;101974.16;5096547;27;49845;-71
2022/07/21 09:44:55;;;;;;;;;26.50;23.25;;;;;26.56;52.25;101955.38;5097336;27;49818;-70
2022/07/21 09:47:25;;;;;;;;;23.50;23.50;;;;;26.67;52.26;101961.38;5098027;27;49701;-75
2022/07/21 09:49:51;;;;;;;;;25.00;23.00;;;;;26.68;51.81;101955.03;5107461;27;50031;-71
2022/07/21 09:52:19;;;;;;;;;27.25;24.75;;;;;26.80;51.66;101964.59;5115291;27;49903;-70
2022/07/21 09:54:45;;;;;;;;;22.00;21.25;;;;;26.66;51.00;101962.28;5115494;27;49760;-71
2022/07/21 09:57:11;;;;;;;;;19.75;19.75;;;;;26.45;51.86;101922.47;5117595;27;49764;-78
2022/07/21 09:59:38;;;;;;;;;21.75;18.00;;;;;26.59;52.15;101949.03;5116920;27;49718;-72
2022/07/21 10:02:04;;;;;;;;;19.75;19.75;;;;;26.79;52.16;101955.63;5105572;27;49817;-69
2022/07/21 10:04:31;;;;;;;;;23.00;21.00;;;;;26.91;52.27;101950.81;5096501;27;49753;-68
2022/07/21 10:06:58;;;;;;;;;23.00;22.75;;;;;26.90;51.18;101954.44;5096561;27;49854;-71
2022/07/21 10:09:24;;;;;;;;;23.25;23.25;;;;;26.88;50.74;101948.22;5096277;27;49734;-69
2022/07/21 10:11:50;;;;;;;;;20.25;19.00;;;;;26.82;51.42;101939.38;5109137;27;49616;-67
2022/07/21 10:14:15;;;;;;;;;19.00;17.00;;;;;26.61;51.76;101933.69;5116572;27;49663;-72
2022/07/21 10:16:58;;;;;;;;;22.25;20.25;;;;;26.23;52.18;101916.72;5110522;27;50034;-76
2022/07/21 10:19:50;;;;;;;;;21.75;18.75;;;;;26.34;52.77;101957.69;5098253;27;50527;-73
2022/07/21 10:22:37;;;;;;;;;26.00;22.25;;;;;26.29;52.89;101956.94;5095620;27;49888;-78
2022/07/21 10:25:04;;;;;;;;;20.50;20.50;;;;;26.12;52.15;101913.44;5097135;27;49587;-71
2022/07/21 10:27:37;;;;;;;;;22.50;21.00;;;;;26.05;53.06;101923.44;5078761;27;49911;-79
2022/07/21 10:30:05;;;;;;;;;23.25;21.00;;;;;26.19;52.49;101920.44;5104339;27;49791;-81
2022/07/21 10:32:52;;;;;;;;;12.50;11.75;;;;;26.40;52.77;101948.63;5117060;27;49578;-81
2022/07/21 10:35:28;;;;;;;;;20.75;19.50;;;;;26.30;52.65;101950.66;5101131;27;50205;-75
2022/07/21 10:37:55;;;;;;;;;21.00;20.00;;;;;26.20;52.97;101958.06;5096442;27;49865;-74
2022/07/21 10:40:20;;;;;;;;;23.50;19.75;;;;;26.12;52.90;101954.69;5095794;27;49893;-75
2022/07/21 10:43:15;;;;;;;;;25.50;22.00;;;;;25.63;52.87;101939.69;5095024;27;49837;-78
2022/07/21 10:45:42;;;;;;;;;22.50;20.00;;;;;25.86;53.77;101940.97;5086536;27;49690;-76
2022/07/21 10:48:37;;;;;;;;;22.75;22.00;;;;;26.01;52.64;101948.69;5109087;27;50021;-75
2022/07/21 10:51:04;;;;;;;;;20.00;19.50;;;;;26.27;52.94;101952.53;5104163;27;50747;-75
2022/07/21 10:53:29;;;;;;;;;21.50;20.00;;;;;26.42;52.49;101949.47;5095207;27;49778;-76
2022/07/21 10:55:55;;;;;;;;;21.75;18.50;;;;;26.56;52.45;101958.09;5096654;27;51101;-75
2022/07/21 10:58:26;;;;;;;;;19.00;18.00;;;;;26.48;51.90;101896.34;5094312;27;49787;-76
2022/07/21 11:01:06;;;;;;;;;23.25;20.25;;;;;26.78;51.10;101909.88;5106818;27;49756;-80
2022/07/21 11:03:40;;;;;;;;;21.50;18.75;;;;;27.30;50.37;101959.59;5115250;27;49765;-76
2022/07/21 11:06:05;;;;;;;;;22.75;20.50;;;;;27.27;49.81;101922.81;5116208;27;49775;-80
2022/07/21 11:08:38;;;;;;;;;18.50;16.50;;;;;27.43;49.09;101943.94;5116737;27;49801;-78
2022/07/21 11:11:13;;;;;;;;;20.25;19.75;;;;;27.58;49.31;101946.16;5115664;27;49703;-68
2022/07/21 11:14:00;;;;;;;;;12.50;11.50;;;;;27.67;49.02;101962.09;5115459;27;49781;-69
2022/07/21 11:16:49;;;;;;;;;19.00;19.00;;;;;27.36;47.78;101952.22;5115954;27;49799;-73